Time;durP1;ratioP1;P1;durP2;ratioP2;P2;SDS_P1;SDS_P2;PMS_P1;PMS_P2;Temp;Humidity;BMP_temperature;BMP_pressure;BME280_temperature;BME280_humidity;BME280_pressure;Samples;Min_cycle;Max_cycle;Signal;HPM_P1;HPM_P2
2022/06/21 00:01:01;;;;;;;10.55;2.85;;;12.30;99.90;;;;;;5038039;28;20478;-95
2022/06/21 00:03:29;;;;;;;11.43;2.80;;;12.30;99.90;;;;;;5018357;28;20045;-94
2022/06/21 00:05:55;;;;;;;10.82;3.03;;;12.30;99.90;;;;;;5005736;28;20064;-94
2022/06/21 00:08:28;;;;;;;12.90;3.45;;;12.30;99.90;;;;;;4970917;28;20045;-94
2022/06/21 00:10:56;;;;;;;5.97;2.67;;;12.30;99.90;;;;;;5003974;28;20075;-95
2022/06/21 00:13:31;;;;;;;10.05;3.47;;;12.30;99.90;;;;;;5037213;28;20099;-94
2022/06/21 00:16:01;;;;;;;8.48;2.80;;;12.30;99.90;;;;;;5004400;28;20037;-94
2022/06/21 00:18:30;;;;;;;10.63;3.47;;;12.20;99.90;;;;;;5020297;28;20040;-94
2022/06/21 00:20:56;;;;;;;10.02;3.75;;;12.20;99.90;;;;;;5006124;28;20033;-94
2022/06/21 00:23:25;;;;;;;8.63;3.50;;;12.20;99.90;;;;;;5020491;28;20044;-93
2022/06/21 00:25:52;;;;;;;9.32;3.00;;;12.20;99.90;;;;;;5005022;28;20111;-94
2022/06/21 00:28:19;;;;;;;6.65;3.08;;;12.20;99.90;;;;;;5005445;28;20048;-93
2022/06/21 00:30:47;;;;;;;8.57;3.00;;;12.20;99.90;;;;;;4970894;28;20045;-94
2022/06/21 00:33:17;;;;;;;5.75;2.53;;;12.30;99.90;;;;;;5008784;28;20045;-92
2022/06/21 00:35:46;;;;;;;8.73;3.25;;;12.20;99.90;;;;;;5019356;28;20119;-95
2022/06/21 00:38:22;;;;;;;7.43;3.20;;;12.20;99.90;;;;;;5004437;28;20073;-93
2022/06/21 00:40:48;;;;;;;9.05;2.90;;;12.20;99.90;;;;;;5006368;28;20049;-94
2022/06/21 00:43:25;;;;;;;10.07;3.10;;;12.10;99.90;;;;;;4989256;28;20045;-93
2022/06/21 00:45:51;;;;;;;7.13;3.08;;;12.10;99.90;;;;;;5030337;28;20054;-93
2022/06/21 00:48:28;;;;;;;8.93;3.13;;;12.10;99.90;;;;;;4984642;28;20048;-93
2022/06/21 00:51:03;;;;;;;6.22;2.55;;;12.00;99.90;;;;;;5004019;28;20049;-93
2022/06/21 00:53:40;;;;;;;6.35;2.83;;;12.00;99.90;;;;;;4998244;28;20076;-93
2022/06/21 00:56:17;;;;;;;8.38;2.67;;;11.90;99.90;;;;;;5003348;28;20072;-93
2022/06/21 00:58:43;;;;;;;4.20;2.30;;;12.00;99.90;;;;;;5005672;28;20033;-94
2022/06/21 01:01:29;;;;;;;6.93;2.70;;;12.00;99.90;;;;;;5007304;28;20037;-94
2022/06/21 01:04:10;;;;;;;11.02;3.25;;;12.00;99.90;;;;;;5007275;28;20064;-93
2022/06/21 01:06:44;;;;;;;6.85;2.72;;;11.90;99.90;;;;;;5017513;28;20049;-92
2022/06/21 01:09:39;;;;;;;8.18;2.90;;;11.80;99.90;;;;;;5005833;28;20046;-92
2022/06/21 01:12:31;;;;;;;9.68;2.90;;;11.90;99.90;;;;;;5005206;28;20049;-93
2022/06/21 01:15:10;;;;;;;4.85;2.60;;;11.80;99.90;;;;;;5005064;28;20033;-92
2022/06/21 01:17:37;;;;;;;11.50;3.85;;;11.70;99.90;;;;;;5007341;28;20045;-93
2022/06/21 01:20:14;;;;;;;7.65;2.97;;;11.60;99.90;;;;;;4993107;28;20048;-91
2022/06/21 01:23:09;;;;;;;9.27;2.92;;;11.60;99.90;;;;;;5007211;28;20044;-92
2022/06/21 01:26:08;;;;;;;5.78;2.35;;;11.50;99.90;;;;;;5036500;28;20048;-91
2022/06/21 01:28:35;;;;;;;6.38;3.10;;;11.50;99.90;;;;;;5028916;28;20095;-92
2022/06/21 01:31:02;;;;;;;7.10;3.05;;;11.40;99.90;;;;;;4993465;28;20068;-92
2022/06/21 01:33:31;;;;;;;10.85;3.20;;;11.40;99.90;;;;;;5022804;28;20044;-92
2022/06/21 01:36:00;;;;;;;9.35;2.60;;;11.50;99.90;;;;;;5015444;28;20044;-94
2022/06/21 01:38:32;;;;;;;6.78;2.90;;;11.40;99.90;;;;;;5010288;28;20036;-91
2022/06/21 01:41:13;;;;;;;5.97;2.70;;;11.20;99.90;;;;;;5007587;28;20037;-90
2022/06/21 01:43:43;;;;;;;7.65;3.42;;;11.30;99.90;;;;;;5010196;28;20098;-91
2022/06/21 01:46:12;;;;;;;4.97;2.83;;;11.30;99.90;;;;;;5032743;28;20510;-92
2022/06/21 01:48:45;;;;;;;9.63;3.22;;;11.30;99.90;;;;;;5018785;28;20091;-90
2022/06/21 01:51:17;;;;;;;9.02;3.55;;;11.30;99.90;;;;;;5021768;28;20049;-89
2022/06/21 01:53:43;;;;;;;11.02;3.10;;;11.20;99.90;;;;;;5008021;28;20905;-90
2022/06/21 01:56:16;;;;;;;10.30;3.20;;;11.20;99.90;;;;;;4987944;28;20125;-92
2022/06/21 01:58:50;;;;;;;7.80;3.10;;;11.20;99.90;;;;;;5002130;28;20038;-92
2022/06/21 02:01:26;;;;;;;9.50;3.22;;;11.20;99.90;;;;;;5007031;28;20049;-93
2022/06/21 02:03:55;;;;;;;10.15;3.80;;;11.10;99.90;;;;;;5006102;28;20049;-92
2022/06/21 02:06:26;;;;;;;5.30;2.75;;;11.10;99.90;;;;;;5015590;28;20123;-91
2022/06/21 02:08:57;;;;;;;5.65;2.60;;;11.10;99.90;;;;;;5005571;28;20075;-94
2022/06/21 02:11:41;;;;;;;7.43;2.50;;;11.00;99.90;;;;;;5001979;28;20140;-92
2022/06/21 02:14:29;;;;;;;5.18;2.92;;;11.00;99.90;;;;;;5002196;28;20049;-94
2022/06/21 02:17:17;;;;;;;11.43;4.00;;;10.90;99.90;;;;;;5018299;28;20156;-93
2022/06/21 02:19:51;;;;;;;15.27;4.07;;;10.90;99.90;;;;;;5003813;28;20040;-92
2022/06/21 02:22:22;;;;;;;6.55;3.15;;;10.90;99.90;;;;;;5020423;28;20052;-94
2022/06/21 02:24:50;;;;;;;11.40;3.47;;;10.90;99.90;;;;;;5002598;28;20126;-91
2022/06/21 02:27:20;;;;;;;7.35;3.30;;;10.90;99.90;;;;;;4987839;28;20127;-92
2022/06/21 02:29:52;;;;;;;7.93;3.70;;;10.90;99.90;;;;;;4999836;28;20076;-92
2022/06/21 02:32:39;;;;;;;8.80;3.83;;;10.90;99.90;;;;;;5004363;28;20037;-94
2022/06/21 02:35:30;;;;;;;5.10;3.10;;;10.90;99.90;;;;;;5002841;28;20087;-92
2022/06/21 02:38:00;;;;;;;6.45;3.30;;;10.80;99.90;;;;;;5004704;28;20183;-93
2022/06/21 02:40:41;;;;;;;6.80;3.55;;;10.80;99.90;;;;;;5003932;28;20056;-93
2022/06/21 02:43:16;;;;;;;10.40;3.95;;;10.80;99.90;;;;;;5014654;28;20045;-95
2022/06/21 02:45:54;;;;;;;9.45;3.80;;;10.80;99.90;;;;;;5018897;28;20052;-93
2022/06/21 02:48:27;;;;;;;7.53;3.80;;;10.80;99.90;;;;;;5018301;28;20405;-93
2022/06/21 02:51:01;;;;;;;11.55;4.60;;;10.80;99.90;;;;;;5001894;28;20053;-92
2022/06/21 02:53:32;;;;;;;8.25;3.60;;;10.80;99.90;;;;;;5015689;28;20037;-93
2022/06/21 02:56:03;;;;;;;6.40;3.72;;;10.80;99.90;;;;;;5018841;28;20041;-92
2022/06/21 02:58:40;;;;;;;8.88;4.45;;;10.80;99.90;;;;;;5004643;28;20044;-92
2022/06/21 03:01:18;;;;;;;8.25;4.05;;;10.80;99.90;;;;;;5004783;28;20052;-94
2022/06/21 03:03:45;;;;;;;9.35;4.40;;;10.80;99.90;;;;;;5001151;28;20059;-93
2022/06/21 03:06:14;;;;;;;6.95;4.03;;;10.80;99.90;;;;;;5005973;28;20523;-91
2022/06/21 03:09:03;;;;;;;5.93;3.83;;;10.80;99.90;;;;;;5003425;28;20044;-93
2022/06/21 03:11:34;;;;;;;9.80;4.18;;;11.00;99.90;;;;;;5021166;28;20044;-94
2022/06/21 03:14:08;;;;;;;8.70;4.00;;;10.80;99.90;;;;;;5017913;28;20036;-92
2022/06/21 03:16:34;;;;;;;6.97;3.97;;;10.90;99.90;;;;;;5002410;28;20046;-92
2022/06/21 03:19:05;;;;;;;9.55;4.50;;;10.90;99.90;;;;;;5001555;28;20033;-91
2022/06/21 03:21:34;;;;;;;9.48;4.65;;;10.90;99.90;;;;;;5017261;28;20123;-93
2022/06/21 03:24:03;;;;;;;6.97;4.15;;;10.90;99.90;;;;;;5018293;28;20128;-93
2022/06/21 03:26:30;;;;;;;6.80;3.92;;;10.90;99.90;;;;;;5018968;28;20045;-91
2022/06/21 03:28:57;;;;;;;5.97;3.45;;;10.90;99.90;;;;;;5003038;28;20450;-93
2022/06/21 03:31:33;;;;;;;11.40;4.55;;;11.00;99.90;;;;;;4975760;28;20048;-92
2022/06/21 03:34:14;;;;;;;5.75;4.13;;;10.90;99.90;;;;;;5022766;28;20134;-92
2022/06/21 03:36:41;;;;;;;11.55;4.40;;;11.00;99.90;;;;;;5022166;28;20037;-93
2022/06/21 03:39:14;;;;;;;8.20;4.30;;;11.00;99.90;;;;;;5006435;28;20049;-91
2022/06/21 03:41:44;;;;;;;7.20;4.70;;;11.00;99.90;;;;;;5001451;28;20087;-94
2022/06/21 03:44:34;;;;;;;9.52;4.50;;;11.00;99.90;;;;;;4991423;28;20045;-94
2022/06/21 03:47:09;;;;;;;9.60;4.70;;;11.10;99.90;;;;;;5024483;28;20493;-92
2022/06/21 03:49:40;;;;;;;7.32;4.80;;;11.10;99.90;;;;;;5025510;28;20051;-92
2022/06/21 03:52:13;;;;;;;7.82;4.80;;;11.10;99.90;;;;;;5007522;28;20044;-92
2022/06/21 03:54:47;;;;;;;8.07;4.60;;;11.20;99.90;;;;;;5041000;28;20077;-94
2022/06/21 03:57:35;;;;;;;9.35;4.53;;;11.20;99.90;;;;;;5010601;28;20087;-92
2022/06/21 04:00:05;;;;;;;8.00;4.95;;;11.30;99.90;;;;;;5002283;28;20056;-93
2022/06/21 04:02:39;;;;;;;12.05;5.13;;;11.30;99.90;;;;;;5010918;28;20092;-94
2022/06/21 04:05:13;;;;;;;10.52;5.05;;;11.30;99.90;;;;;;5008060;28;20052;-93
2022/06/21 04:07:52;;;;;;;10.10;5.22;;;11.40;99.90;;;;;;5026470;28;20057;-94
2022/06/21 04:10:30;;;;;;;8.75;5.03;;;11.40;99.90;;;;;;5001323;28;20106;-94
2022/06/21 04:13:34;;;;;;;9.90;4.97;;;11.40;99.90;;;;;;5024438;28;20042;-92
2022/06/21 04:16:27;;;;;;;9.57;5.30;;;11.40;99.90;;;;;;5008034;28;20036;-91
2022/06/21 04:19:20;;;;;;;6.53;4.88;;;11.50;99.90;;;;;;5005088;28;20056;-92
2022/06/21 04:21:58;;;;;;;10.77;5.80;;;11.50;99.90;;;;;;5010552;28;20052;-92
2022/06/21 04:24:27;;;;;;;12.27;5.82;;;11.50;99.90;;;;;;5025270;28;20041;-92
2022/06/21 04:27:03;;;;;;;8.25;5.47;;;11.60;99.90;;;;;;5009289;28;20049;-91
2022/06/21 04:29:35;;;;;;;9.93;5.82;;;11.60;99.90;;;;;;5012779;28;20136;-91
2022/06/21 04:32:08;;;;;;;9.15;5.60;;;11.70;99.90;;;;;;5009400;28;20049;-90
2022/06/21 04:34:43;;;;;;;10.35;5.85;;;11.80;99.90;;;;;;5021664;28;20148;-91
2022/06/21 04:37:13;;;;;;;9.50;5.47;;;11.80;99.90;;;;;;5007661;28;20089;-90
2022/06/21 04:39:59;;;;;;;13.25;5.60;;;11.80;99.90;;;;;;5022344;28;20045;-92
2022/06/21 04:42:50;;;;;;;9.65;5.80;;;11.90;99.90;;;;;;5020802;28;20052;-92
2022/06/21 04:45:18;;;;;;;10.05;6.18;;;11.80;99.90;;;;;;5037421;28;20049;-92
2022/06/21 04:48:23;;;;;;;10.90;5.47;;;11.80;99.90;;;;;;5021872;28;20136;-92
2022/06/21 04:50:58;;;;;;;11.82;5.72;;;11.90;99.90;;;;;;4991375;28;20045;-92
2022/06/21 04:53:49;;;;;;;9.80;5.53;;;11.90;99.90;;;;;;5010039;28;20494;-91
2022/06/21 04:56:27;;;;;;;12.13;6.90;;;11.90;99.90;;;;;;5011098;28;20100;-92
2022/06/21 04:58:53;;;;;;;10.05;5.47;;;12.00;99.90;;;;;;5011377;28;20036;-93
2022/06/21 05:01:32;;;;;;;10.52;6.15;;;12.00;99.90;;;;;;4989579;28;20041;-93
2022/06/21 05:04:07;;;;;;;11.60;6.15;;;12.00;99.90;;;;;;4988741;28;20049;-92
2022/06/21 05:06:34;;;;;;;10.00;6.47;;;12.10;99.90;;;;;;5023670;28;20100;-93
2022/06/21 05:09:00;;;;;;;7.70;5.53;;;12.10;99.90;;;;;;5008677;28;20044;-90
2022/06/21 05:11:28;;;;;;;10.75;6.07;;;12.20;99.90;;;;;;4993120;28;20053;-91
2022/06/21 05:13:56;;;;;;;12.35;6.40;;;12.20;99.90;;;;;;5019684;28;20045;-91
2022/06/21 05:16:36;;;;;;;10.90;6.40;;;12.30;99.90;;;;;;5022813;28;20041;-91
2022/06/21 05:19:12;;;;;;;9.50;5.80;;;12.40;99.90;;;;;;5018081;28;20091;-92
2022/06/21 05:21:44;;;;;;;11.20;7.20;;;12.40;99.90;;;;;;5009117;28;20528;-94
2022/06/21 05:24:11;;;;;;;10.00;6.68;;;12.40;99.90;;;;;;5010067;28;20111;-93
2022/06/21 05:26:46;;;;;;;11.00;7.10;;;12.40;99.90;;;;;;4988270;28;20045;-93
2022/06/21 05:29:22;;;;;;;10.70;7.32;;;12.50;99.90;;;;;;5025595;28;20037;-92
2022/06/21 05:31:54;;;;;;;12.07;7.10;;;12.50;99.90;;;;;;5026559;28;20089;-93
2022/06/21 05:34:24;;;;;;;12.85;7.72;;;12.50;99.90;;;;;;5022383;28;20041;-93
2022/06/21 05:37:03;;;;;;;12.40;7.30;;;12.60;99.90;;;;;;5001721;28;20045;-92
2022/06/21 05:39:34;;;;;;;11.65;7.82;;;12.70;99.90;;;;;;5025102;28;20048;-92
2022/06/21 05:42:04;;;;;;;12.75;8.10;;;12.70;99.90;;;;;;5009468;28;20041;-92
2022/06/21 05:44:48;;;;;;;11.85;8.07;;;12.80;99.90;;;;;;4987671;28;20130;-92
2022/06/21 05:47:25;;;;;;;17.60;8.18;;;12.90;99.90;;;;;;5008237;28;20049;-92
2022/06/21 05:49:52;;;;;;;12.95;8.48;;;12.90;99.90;;;;;;5008019;28;20045;-92
2022/06/21 05:52:37;;;;;;;12.75;8.55;;;13.00;99.90;;;;;;4989510;28;20096;-91
2022/06/21 05:55:22;;;;;;;10.95;7.47;;;13.10;99.90;;;;;;5004942;28;20124;-91
2022/06/21 05:57:49;;;;;;;12.73;7.60;;;13.10;99.90;;;;;;5009267;28;20040;-91
2022/06/21 06:00:55;;;;;;;11.40;6.88;;;13.20;99.90;;;;;;5024507;28;20041;-91
2022/06/21 06:03:30;;;;;;;10.35;7.70;;;13.20;99.90;;;;;;5023449;28;20083;-92
2022/06/21 06:06:02;;;;;;;11.38;8.07;;;13.40;99.90;;;;;;5008805;28;20053;-91
2022/06/21 06:08:35;;;;;;;11.68;7.55;;;13.40;99.90;;;;;;5008022;28;20045;-92
2022/06/21 06:11:02;;;;;;;;;;;13.60;99.90;;;;;;5002814;28;20055;-92
2022/06/21 06:13:34;;;;;;;13.57;6.35;;;13.60;99.90;;;;;;5014207;28;19959;-92
2022/06/21 06:16:10;;;;;;;10.65;6.28;;;13.70;99.90;;;;;;5010264;28;20090;-93
2022/06/21 06:18:54;;;;;;;10.27;5.88;;;13.80;99.90;;;;;;5000110;28;20474;-91
2022/06/21 06:21:30;;;;;;;11.20;5.80;;;14.00;99.90;;;;;;5009405;28;20041;-93
2022/06/21 06:24:04;;;;;;;9.40;4.55;;;14.10;99.90;;;;;;5021822;28;20140;-92
2022/06/21 06:26:36;;;;;;;13.85;5.18;;;14.20;99.90;;;;;;5012127;28;20080;-92
2022/06/21 06:29:23;;;;;;;9.13;5.20;;;14.30;99.90;;;;;;5009959;28;20036;-91
2022/06/21 06:32:17;;;;;;;10.10;5.25;;;14.40;99.90;;;;;;5007386;28;20049;-93
2022/06/21 06:34:46;;;;;;;13.02;5.00;;;14.40;99.90;;;;;;5018502;28;20049;-92
2022/06/21 06:37:40;;;;;;;9.63;4.93;;;14.60;99.90;;;;;;5000727;28;20028;-91
2022/06/21 06:40:22;;;;;;;11.00;5.03;;;14.70;99.90;;;;;;5007811;28;20032;-93
2022/06/21 06:42:53;;;;;;;8.82;4.88;;;14.80;99.90;;;;;;5004016;28;20517;-91
2022/06/21 06:45:28;;;;;;;11.93;4.40;;;14.90;99.90;;;;;;4991734;28;20136;-91
2022/06/21 06:48:03;;;;;;;10.20;4.10;;;14.90;99.90;;;;;;5013807;28;20093;-91
2022/06/21 06:50:45;;;;;;;7.88;3.92;;;14.80;99.90;;;;;;5003178;28;20144;-91
2022/06/21 06:53:18;;;;;;;7.77;3.50;;;14.80;99.90;;;;;;5003653;28;20124;-92
2022/06/21 06:55:47;;;;;;;12.25;5.00;;;14.80;99.90;;;;;;5006839;28;20303;-93
2022/06/21 06:58:52;;;;;;;10.63;3.63;;;15.00;99.90;;;;;;5002416;28;20108;-93
2022/06/21 07:01:21;;;;;;;6.68;4.00;;;15.10;99.90;;;;;;5028582;28;20043;-92
2022/06/21 07:04:15;;;;;;;9.50;4.47;;;15.30;99.90;;;;;;5012253;28;20045;-92
2022/06/21 07:06:44;;;;;;;12.48;5.47;;;15.60;99.90;;;;;;4987250;28;20483;-92
2022/06/21 07:09:19;;;;;;;9.35;4.32;;;15.70;99.90;;;;;;4987983;28;20037;-92
2022/06/21 07:11:51;;;;;;;10.63;4.50;;;15.90;99.90;;;;;;4999608;28;20099;-92
2022/06/21 07:14:22;;;;;;;11.07;4.20;;;16.10;99.90;;;;;;5008290;28;20065;-92
2022/06/21 07:17:03;;;;;;;9.38;4.38;;;16.10;99.90;;;;;;5034146;28;20048;-92
2022/06/21 07:19:30;;;;;;;10.05;4.32;;;16.20;99.90;;;;;;5018000;28;20041;-92
2022/06/21 07:21:56;;;;;;;8.02;4.13;;;16.10;99.90;;;;;;5019762;28;20109;-92
2022/06/21 07:24:22;;;;;;;13.15;4.30;;;16.20;99.90;;;;;;5042071;28;20083;-91
2022/06/21 07:26:56;;;;;;;9.00;3.90;;;16.30;99.90;;;;;;5026678;28;20233;-93
2022/06/21 07:29:32;;;;;;;9.48;3.75;;;16.40;99.90;;;;;;5027539;28;20053;-94
2022/06/21 07:32:05;;;;;;;10.95;4.25;;;16.50;99.90;;;;;;5008291;28;20049;-92
2022/06/21 07:34:37;;;;;;;10.25;4.18;;;16.60;99.90;;;;;;5006362;28;20051;-93
2022/06/21 07:37:26;;;;;;;;;;;16.60;99.90;;;;;;5007523;28;20045;-91
2022/06/21 07:40:13;;;;;;;7.15;3.92;;;16.70;99.90;;;;;;5014309;28;19960;-92
2022/06/21 07:42:47;;;;;;;12.77;4.18;;;16.80;99.90;;;;;;4987492;28;20049;-92
2022/06/21 07:45:31;;;;;;;10.25;4.88;;;16.90;99.90;;;;;;4987452;28;20117;-92
2022/06/21 07:48:00;;;;;;;9.45;4.13;;;17.20;99.90;;;;;;5015426;28;20045;-91
2022/06/21 07:50:51;;;;;;;11.32;5.22;;;17.30;99.90;;;;;;5006655;28;20045;-91
2022/06/21 07:53:36;;;;;;;11.98;4.45;;;17.50;99.90;;;;;;5011963;28;20499;-93
2022/06/21 07:56:27;;;;;;;7.45;3.78;;;17.60;99.90;;;;;;5020415;28;20124;-93
2022/06/21 07:59:00;;;;;;;11.75;5.00;;;17.60;99.90;;;;;;5023232;28;20041;-93
2022/06/21 08:07:53;;;;;;;8.07;5.00;;;18.00;99.90;;;;;;4993964;28;20061;-92
2022/06/21 08:10:51;;;;;;;9.15;5.07;;;18.20;99.90;;;;;;5004839;28;20415;-91
2022/06/21 08:13:17;;;;;;;10.02;4.82;;;18.30;99.90;;;;;;5003190;28;20408;-91
2022/06/21 08:15:52;;;;;;;8.23;4.45;;;18.30;99.90;;;;;;4971868;28;20092;-92
2022/06/21 08:18:46;;;;;;;7.82;3.83;;;18.20;99.90;;;;;;4990464;28;20049;-92
2022/06/21 08:21:19;;;;;;;6.22;3.13;;;18.10;99.90;;;;;;5004259;28;20045;-93
2022/06/21 08:24:06;;;;;;;8.13;3.30;;;18.20;99.90;;;;;;5008371;28;20124;-93
2022/06/21 08:26:47;;;;;;;5.63;2.90;;;18.40;99.90;;;;;;5009885;28;20048;-93
2022/06/21 08:29:51;;;;;;;7.28;4.38;;;18.50;99.90;;;;;;5009638;28;20040;-93
2022/06/21 08:32:32;;;;;;;9.70;4.20;;;18.80;99.90;;;;;;4946529;28;20054;-92
2022/06/21 08:35:04;;;;;;;6.97;3.60;;;18.90;99.90;;;;;;5019685;28;20049;-93
2022/06/21 08:37:45;;;;;;;8.40;4.15;;;18.80;99.80;;;;;;5008956;28;20052;-94
2022/06/21 08:40:26;;;;;;;7.30;4.22;;;18.60;99.20;;;;;;5008957;28;20080;-92
2022/06/21 08:43:03;;;;;;;10.70;4.10;;;18.60;99.60;;;;;;5009214;28;20040;-93
2022/06/21 08:45:55;;;;;;;9.68;4.15;;;18.60;99.80;;;;;;5009360;28;20044;-93
2022/06/21 08:48:59;;;;;;;9.90;3.95;;;18.70;99.80;;;;;;5008976;28;20487;-93
2022/06/21 08:51:36;;;;;;;8.30;3.78;;;18.80;99.70;;;;;;5009579;28;20049;-92
2022/06/21 08:54:08;;;;;;;6.78;3.88;;;19.00;99.70;;;;;;5009509;28;20045;-92
2022/06/21 08:57:15;;;;;;;7.07;3.90;;;19.20;99.00;;;;;;5009505;28;20067;-93
2022/06/21 09:00:03;;;;;;;6.07;3.40;;;19.30;98.70;;;;;;4982291;28;20033;-92
2022/06/21 09:02:55;;;;;;;6.38;3.10;;;19.40;98.20;;;;;;5009353;28;20088;-94
2022/06/21 09:05:33;;;;;;;6.05;3.20;;;19.50;97.60;;;;;;5009646;28;20057;-90
2022/06/21 09:08:34;;;;;;;10.32;2.95;;;19.50;96.80;;;;;;5008734;28;20060;-96
2022/06/21 09:11:02;;;;;;;6.78;3.40;;;19.60;97.10;;;;;;5022621;28;20056;-93
2022/06/21 09:13:46;;;;;;;4.65;3.13;;;19.80;97.20;;;;;;5009232;28;20045;-94
2022/06/21 09:16:36;;;;;;;6.72;3.55;;;20.00;96.80;;;;;;5009261;28;20045;-93
2022/06/21 09:19:47;;;;;;;12.02;4.50;;;20.10;95.90;;;;;;5009308;28;20045;-92
2022/06/21 09:22:34;;;;;;;5.78;4.38;;;20.20;96.00;;;;;;5009560;28;20099;-93
2022/06/21 09:25:19;;;;;;;10.48;3.90;;;20.30;96.10;;;;;;5008770;28;20036;-93
2022/06/21 09:27:50;;;;;;;8.82;3.70;;;20.40;96.10;;;;;;5007898;28;20049;-94
2022/06/21 09:30:50;;;;;;;6.32;3.45;;;20.40;95.70;;;;;;5008941;28;20040;-94
2022/06/21 09:33:33;;;;;;;6.85;3.50;;;20.30;95.20;;;;;;5025882;28;20084;-93
2022/06/21 09:36:19;;;;;;;6.57;3.55;;;20.20;94.70;;;;;;5011038;28;20041;-93
2022/06/21 09:38:57;;;;;;;6.43;3.40;;;20.10;94.10;;;;;;5026647;28;20099;-93
2022/06/21 09:41:46;;;;;;;7.40;3.25;;;20.20;95.40;;;;;;5009084;28;20083;-93
2022/06/21 09:44:21;;;;;;;5.65;3.03;;;20.40;96.00;;;;;;5010040;28;20051;-92
2022/06/21 09:47:02;;;;;;;5.50;3.00;;;20.70;95.50;;;;;;5025979;28;20045;-91
2022/06/21 09:49:56;;;;;;;9.03;2.90;;;21.00;94.60;;;;;;5010856;28;20048;-93
2022/06/21 09:52:58;;;;;;;8.27;3.22;;;21.30;93.80;;;;;;5010267;28;20522;-95
2022/06/21 09:55:45;;;;;;;5.80;3.05;;;21.70;94.90;;;;;;5010459;28;20075;-92
2022/06/21 09:58:14;;;;;;;5.97;2.92;;;22.10;94.70;;;;;;5010141;28;20080;-93
2022/06/21 10:00:42;;;;;;;6.68;2.65;;;22.40;93.40;;;;;;5012067;28;20079;-93
2022/06/21 10:03:49;;;;;;;9.18;2.88;;;22.50;92.00;;;;;;5012812;28;20052;-93
2022/06/21 10:06:27;;;;;;;8.00;2.53;;;22.60;90.70;;;;;;4970559;28;20065;-93
2022/06/21 10:08:53;;;;;;;7.20;2.70;;;22.70;90.50;;;;;;5019535;28;20105;-93
2022/06/21 10:11:44;;;;;;;7.22;2.40;;;22.80;90.20;;;;;;5011114;28;20056;-93
2022/06/21 10:14:32;;;;;;;5.00;2.20;;;22.90;85.10;;;;;;5006050;28;20184;-93
2022/06/21 10:17:18;;;;;;;3.97;2.40;;;23.00;87.80;;;;;;5005772;28;20049;-93
2022/06/21 10:19:46;;;;;;;11.60;3.28;;;23.20;89.20;;;;;;5005230;28;20037;-95
2022/06/21 10:22:35;;;;;;;6.22;3.00;;;23.30;84.60;;;;;;5005128;28;20114;-93
2022/06/21 10:25:29;;;;;;;10.40;3.00;;;23.20;81.90;;;;;;5004585;28;20099;-93
2022/06/21 10:28:29;;;;;;;6.93;2.70;;;23.10;81.50;;;;;;5004093;28;20042;-94
2022/06/21 10:31:22;;;;;;;7.68;3.13;;;23.20;82.40;;;;;;5004167;28;20042;-90
2022/06/21 10:34:15;;;;;;;4.40;2.40;;;23.00;79.20;;;;;;5003899;28;20080;-92
2022/06/21 10:36:56;;;;;;;8.38;2.92;;;22.90;81.70;;;;;;5004340;28;20067;-91
2022/06/21 10:39:33;;;;;;;7.57;2.47;;;23.00;79.80;;;;;;5005199;28;20038;-92
2022/06/21 10:43:00;;;;;;;5.30;2.30;;;23.10;79.60;;;;;;5004811;28;20104;-92
2022/06/21 10:46:15;;;;;;;5.43;2.40;;;23.30;78.70;;;;;;4929373;28;20053;-91
2022/06/21 10:49:24;;;;;;;6.75;2.30;;;23.50;76.30;;;;;;4985249;28;20089;-92
2022/06/21 10:52:36;;;;;;;6.32;2.30;;;23.70;78.10;;;;;;4984528;28;20128;-92
2022/06/21 10:55:05;;;;;;;4.85;1.73;;;23.90;78.00;;;;;;4984896;28;20053;-93
2022/06/21 10:57:49;;;;;;;7.00;2.00;;;24.10;77.90;;;;;;4985149;28;20061;-91
2022/06/21 11:04:02;;;;;;;5.75;2.08;;;24.40;75.90;;;;;;5000234;28;20048;-93
2022/06/21 11:06:44;;;;;;;6.20;2.63;;;24.60;75.10;;;;;;4993348;28;20115;-93
2022/06/21 11:09:20;;;;;;;3.97;2.00;;;24.70;71.50;;;;;;5004099;28;20033;-92
2022/06/21 11:11:51;;;;;;;3.92;1.80;;;24.70;71.20;;;;;;5003735;28;20049;-92
2022/06/21 11:14:17;;;;;;;3.88;1.60;;;24.80;70.50;;;;;;5020375;28;20049;-92
2022/06/21 11:17:19;;;;;;;5.07;1.40;;;24.80;68.60;;;;;;5004468;28;20030;-93
2022/06/21 11:20:03;;;;;;;5.60;1.60;;;24.90;70.40;;;;;;5003710;28;20041;-91
2022/06/21 11:22:45;;;;;;;3.97;1.88;;;25.00;68.20;;;;;;5003293;28;20053;-94
2022/06/21 11:25:32;;;;;;;3.55;1.90;;;25.10;67.00;;;;;;4996873;28;20038;-91
2022/06/21 11:28:16;;;;;;;7.80;2.47;;;25.10;67.00;;;;;;4985002;28;20507;-92
2022/06/21 11:31:09;;;;;;;5.05;2.33;;;24.80;67.20;;;;;;4992754;28;20093;-91
2022/06/21 11:34:00;;;;;;;6.72;2.22;;;24.70;67.20;;;;;;4999274;28;20054;-92
2022/06/21 11:36:29;;;;;;;5.03;1.75;;;24.60;66.70;;;;;;4999926;28;20046;-94
2022/06/21 11:39:11;;;;;;;2.95;1.63;;;24.70;66.90;;;;;;4996350;28;20100;-92
2022/06/21 11:44:36;;;;;;;7.55;1.90;;;24.90;65.80;;;;;;5024093;28;20048;-93
2022/06/21 11:47:18;;;;;;;3.30;1.58;;;25.00;65.90;;;;;;5007335;28;20048;-93
2022/06/21 11:50:00;;;;;;;4.00;1.73;;;25.00;64.10;;;;;;5005072;28;20045;-93
2022/06/21 11:52:56;;;;;;;5.90;1.52;;;24.90;63.60;;;;;;5007811;28;20069;-92
2022/06/21 11:55:41;;;;;;;4.68;1.58;;;25.00;65.20;;;;;;4996532;28;20511;-93
2022/06/21 11:58:23;;;;;;;3.10;1.77;;;25.20;64.80;;;;;;4988345;28;20041;-91
2022/06/21 12:01:11;;;;;;;4.68;1.65;;;25.30;64.60;;;;;;4989328;28;20046;-93
2022/06/21 12:04:05;;;;;;;4.57;1.50;;;25.40;64.80;;;;;;4981735;28;20053;-93
2022/06/21 12:06:41;;;;;;;5.05;1.90;;;25.60;64.40;;;;;;5001196;28;20605;-92
2022/06/21 12:09:22;;;;;;;5.63;1.70;;;25.70;63.60;;;;;;4999444;28;20042;-92
2022/06/21 12:12:03;;;;;;;6.75;1.92;;;25.90;63.20;;;;;;5017003;28;20499;-91
2022/06/21 12:14:43;;;;;;;3.55;1.70;;;26.10;62.40;;;;;;5000625;28;20099;-93
2022/06/21 12:17:43;;;;;;;3.63;1.88;;;26.20;62.00;;;;;;4984559;28;20050;-91
2022/06/21 12:20:15;;;;;;;6.00;1.77;;;26.30;60.30;;;;;;4987808;28;20503;-91
2022/06/21 12:22:46;;;;;;;2.78;1.40;;;26.30;60.90;;;;;;5007352;28;20363;-93
2022/06/21 12:25:14;;;;;;;4.55;2.05;;;26.30;62.60;;;;;;5023550;28;20118;-92
2022/06/21 12:27:39;;;;;;;4.55;1.40;;;26.40;60.80;;;;;;5023437;28;20049;-92
2022/06/21 12:30:23;;;;;;;6.57;1.83;;;26.60;61.10;;;;;;4974439;28;20049;-92
2022/06/21 12:32:57;;;;;;;6.40;2.17;;;26.60;60.40;;;;;;5023644;28;20140;-93
2022/06/21 12:35:43;;;;;;;4.13;1.77;;;26.80;61.90;;;;;;5023032;28;20100;-92
2022/06/21 12:38:15;;;;;;;2.55;1.42;;;27.00;60.60;;;;;;5022390;28;20045;-93
2022/06/21 12:40:53;;;;;;;3.03;1.60;;;27.10;59.60;;;;;;5007039;28;20385;-93
2022/06/21 12:43:43;;;;;;;3.90;1.30;;;27.20;58.30;;;;;;5023999;28;20052;-92
2022/06/21 12:46:30;;;;;;;7.10;1.73;;;27.30;58.60;;;;;;5006811;28;20364;-92
2022/06/21 12:49:17;;;;;;;3.72;1.42;;;27.40;59.30;;;;;;5005536;28;20041;-92
2022/06/21 12:51:53;;;;;;;3.20;1.20;;;27.60;57.50;;;;;;5022353;28;20113;-92
2022/06/21 12:54:49;;;;;;;3.22;1.30;;;27.80;57.20;;;;;;5006264;28;20117;-92
2022/06/21 12:57:41;;;;;;;3.58;1.25;;;27.80;56.30;;;;;;5022447;28;20045;-93
2022/06/21 13:00:30;;;;;;;3.47;1.30;;;28.00;57.50;;;;;;5012446;28;20050;-92
2022/06/21 13:03:14;;;;;;;3.28;1.20;;;28.10;56.90;;;;;;4993268;28;20200;-92
2022/06/21 13:06:22;;;;;;;3.38;1.55;;;28.20;55.30;;;;;;5024303;28;20091;-92
2022/06/21 13:09:09;;;;;;;4.13;1.40;;;28.30;54.70;;;;;;5041183;28;20057;-92
2022/06/21 13:11:54;;;;;;;3.70;1.35;;;28.20;54.20;;;;;;5024210;28;20048;-91
2022/06/21 13:14:45;;;;;;;4.03;1.50;;;28.20;54.60;;;;;;5023564;28;20124;-93
2022/06/21 13:17:34;;;;;;;3.67;1.48;;;28.20;55.00;;;;;;5023464;28;20080;-92
2022/06/21 13:20:13;;;;;;;3.38;1.42;;;28.30;55.20;;;;;;5023058;28;20047;-94
2022/06/21 13:22:48;;;;;;;6.03;1.65;;;28.30;53.60;;;;;;5023301;28;20049;-92
2022/06/21 13:25:19;;;;;;;4.80;1.73;;;28.20;52.90;;;;;;5023491;28;20490;-92
2022/06/21 13:27:57;;;;;;;2.38;1.35;;;28.30;53.60;;;;;;5024361;28;20479;-94
2022/06/21 13:30:51;;;;;;;2.97;1.48;;;28.30;53.40;;;;;;5024776;28;20033;-95
2022/06/21 13:33:55;;;;;;;2.83;1.30;;;28.10;52.50;;;;;;5024245;28;20487;-92
2022/06/21 13:36:29;;;;;;;3.38;1.52;;;27.70;53.80;;;;;;5023680;28;20048;-93
2022/06/21 13:39:15;;;;;;;3.33;1.42;;;27.50;54.00;;;;;;5023807;28;20040;-92
2022/06/21 13:44:45;;;;;;;3.70;1.92;;;27.40;55.20;;;;;;5039727;28;20080;-92
2022/06/21 13:47:19;;;;;;;2.45;1.13;;;27.20;53.90;;;;;;5023512;28;20092;-92
2022/06/21 13:49:54;;;;;;;6.38;1.40;;;27.10;54.90;;;;;;5023554;28;20178;-91
2022/06/21 13:53:08;;;;;;;3.38;1.50;;;27.00;54.90;;;;;;5023786;28;20041;-92
2022/06/21 13:55:55;;;;;;;5.60;1.70;;;26.80;54.20;;;;;;5018377;28;20131;-92
2022/06/21 13:58:34;;;;;;;4.78;1.40;;;26.70;55.00;;;;;;5023342;28;20044;-92
2022/06/21 14:01:18;;;;;;;3.40;1.85;;;26.80;54.30;;;;;;5023493;28;20041;-90
2022/06/21 14:03:52;;;;;;;7.47;1.80;;;26.80;54.10;;;;;;5023166;28;20059;-92